Data for 12/08/2012

Time Sea-Level Adjusted Pressure Absolute Pressure Temperature Relative Humidity Dew Point   
(mb) (inHg) (mb) (inHg) (C) (F) (%) (C) (F)
00:05 1006 29.71 835 24.66 -0.6 30.8 50 -9.7 14.5
00:10 1006 29.71 835 24.66 -0.6 31 51 -9.5 15
00:15 1006 29.71 835 24.66 -0.5 31.2 48 -10.1 13.9
00:20 1006 29.71 835 24.66 -0.3 31.5 49 -9.8 14.4
00:25 1006 29.71 835 24.66 -0.4 31.4 50 -9.6 14.8
00:30 1006 29.71 835 24.66 -0.5 31.2 51 -9.4 15.1
00:35 1006 29.71 835 24.66 -0.5 31 52 -9.3 15.2
00:40 1005 29.68 835 24.66 -0.5 31.1 51 -9.4 15
00:45 1005 29.68 835 24.66 -0.5 31.1 52 -9.1 15.6
00:50 1005 29.68 834 24.63 -0.5 31.1 51 -9.4 15.1
00:55 1005 29.68 834 24.63 -0.3 31.4 51 -9.2 15.4
01:00 1005 29.68 834 24.63 -0.4 31.4 51 -9.2 15.5
01:05 1005 29.68 834 24.63 -0.4 31.3 51 -9.4 15.1
01:10 1005 29.68 834 24.63 -0.3 31.5 53 -8.7 16.3
01:15 1005 29.68 834 24.63 -0.4 31.3 56 -8.2 17.2
01:20 1005 29.68 834 24.63 -0.6 30.9 55 -8.5 16.7
01:25 1005 29.68 834 24.63 -0.5 31 56 -8.2 17.2
01:30 1005 29.68 834 24.63 -0.4 31.2 55 -8.5 16.7
01:35 1005 29.68 834 24.63 -0.4 31.4 55 -8.3 17
01:40 1005 29.68 834 24.63 -0.4 31.3 54 -8.6 16.5
01:45 1005 29.68 834 24.63 -0.4 31.3 55 -8.5 16.8
01:50 1005 29.68 834 24.63 -0.4 31.2 51 -9.3 15.3
01:55 1005 29.68 834 24.63 -0.3 31.4 50 -9.6 14.8
02:00 1005 29.68 834 24.63 -0.2 31.6 50 -9.5 15
02:05 1005 29.68 834 24.63 -0.2 31.6 50 -9.5 14.9
02:10 1005 29.68 834 24.63 -0.2 31.6 51 -9.2 15.4
02:15 1006 29.71 835 24.66 -0.6 30.9 77 -4.2 24.5
02:20 1006 29.71 835 24.66 -2 28.3 86 -4.1 24.7
02:25 1006 29.71 835 24.66 -3 26.6 91 -4.2 24.4
02:30 1006 29.71 835 24.66 -3.5 25.6 93 -4.5 23.8
02:35 1006 29.71 835 24.66 -3.8 25.2 94 -4.6 23.7
02:40 1006 29.71 836 24.69 -3.9 25 94 -4.7 23.6
02:45 1006 29.71 835 24.66 -3.9 24.9 94 -4.7 23.5
02:50 1006 29.71 835 24.66 -3.9 24.9 95 -4.7 23.6
02:55 1006 29.71 835 24.66 -4 24.8 94 -4.8 23.3
03:00 1006 29.71 836 24.69 -4.1 24.7 93 -5 22.9
03:05 1006 29.71 835 24.66 -4.1 24.7 92 -5.1 22.8
03:10 1006 29.71 835 24.66 -4 24.8 91 -5.3 22.5
03:15 1006 29.71 835 24.66 -4 24.8 89 -5.5 22
03:20 1006 29.71 836 24.69 -4 24.9 88 -5.7 21.8
03:25 1006 29.71 836 24.69 -3.9 25 86 -6 21.2
03:30 1007 29.74 836 24.69 -3.8 25.1 84 -6.2 20.9
03:35 1007 29.74 836 24.69 -3.8 25.2 82 -6.5 20.4
03:40 1007 29.74 836 24.69 -3.7 25.3 80 -6.7 20
03:45 1007 29.74 836 24.69 -3.7 25.4 78 -7 19.4
03:50 1007 29.74 836 24.69 -3.6 25.6 77 -7.1 19.2
03:55 1007 29.74 836 24.69 -3.5 25.7 72 -7.8 18
04:00 1007 29.74 836 24.69 -3.4 25.9 76 -6.9 19.5
04:05 1007 29.74 836 24.69 -3.8 25.1 78 -7 19.3
04:10 1007 29.74 836 24.69 -4 24.9 78 -7.2 19.1
04:15 1007 29.74 836 24.69 -3.9 25 76 -7.5 18.4
04:20 1007 29.74 837 24.72 -3.8 25.2 75 -7.6 18.2
04:25 1007 29.74 837 24.72 -3.7 25.4 71 -8.2 17.3
04:30 1007 29.74 837 24.72 -3.5 25.6 69 -8.5 16.7
04:35 1007 29.74 837 24.72 -3.5 25.8 68 -8.5 16.8
04:40 1007 29.74 836 24.69 -3.4 25.9 65 -9 15.7
04:45 1007 29.74 836 24.69 -3.3 26.1 65 -8.9 15.9
04:50 1007 29.74 837 24.72 -3.4 25.9 65 -9 15.7
04:55 1007 29.74 837 24.72 -3.5 25.6 59 -10.4 13.2
05:00 1007 29.74 837 24.72 -3.4 25.9 50 -12.4 9.7
05:05 1007 29.74 837 24.72 -3.3 26 48 -12.7 9.1
05:10 1007 29.74 837 24.72 -3.4 25.9 47 -13.2 8.2
05:15 1008 29.77 837 24.72 -3.5 25.7 46 -13.6 7.4
05:20 1008 29.77 837 24.72 -3.7 25.4 42 -14.7 5.5
05:25 1008 29.77 837 24.72 -3.8 25.1 42 -14.9 5.1
05:30 1008 29.77 837 24.72 -4 24.8 43 -14.8 5.3
05:35 1008 29.77 837 24.72 -4.2 24.5 45 -14.4 6
05:40 1008 29.77 837 24.72 -4.5 24 45 -14.8 5.4
05:45 1008 29.77 837 24.72 -4.6 23.8 43 -15.5 4.1
05:50 1008 29.77 837 24.72 -4.6 23.7 42 -15.5 4
05:55 1008 29.77 837 24.72 -4.7 23.5 43 -15.4 4.3
06:00 1008 29.77 838 24.75 -4.9 23.2 44 -15.4 4.4
06:05 1009 29.8 838 24.75 -4.9 23.1 45 -15.2 4.7
06:10 1009 29.8 838 24.75 -5 23.1 45 -15.1 4.8
06:15 1009 29.8 838 24.75 -5 23 46 -15 5
06:20 1009 29.8 838 24.75 -5.1 22.8 46 -15.2 4.7
06:25 1009 29.8 838 24.75 -5.3 22.5 46 -15.1 4.8
06:30 1009 29.8 838 24.75 -5.4 22.3 47 -15.1 4.9
06:35 1009 29.8 838 24.75 -5.4 22.3 46 -15.3 4.5
06:40 1009 29.8 838 24.75 -5.4 22.2 46 -15.4 4.2
06:45 1009 29.8 838 24.75 -5.4 22.2 45 -15.6 3.9
06:50 1009 29.8 838 24.75 -5.5 22.2 45 -15.6 4
06:55 1009 29.8 838 24.75 -5.5 22.2 44 -15.9 3.4
07:00 1009 29.8 838 24.75 -5.4 22.3 43 -16.1 3
07:05 1009 29.8 838 24.75 -5.3 22.5 44 -15.8 3.5
07:10 1009 29.8 838 24.75 -5.2 22.6 42 -16.2 2.9
07:15 1009 29.8 838 24.75 -5.1 22.9 41 -16.4 2.5
07:20 1009 29.8 839 24.78 -5 23.1 41 -16.3 2.7
07:25 1009 29.8 839 24.78 -4.9 23.2 39 -16.7 1.9
07:30 1009 29.8 839 24.78 -4.8 23.4 40 -16.4 2.4
07:35 1009 29.8 839 24.78 -4.8 23.3 40 -16.4 2.5
07:40 1009 29.8 839 24.78 -4.8 23.4 42 -16 3.3
07:45 1010 29.83 839 24.78 -4.8 23.3 42 -15.8 3.5
07:50 1010 29.83 839 24.78 -4.8 23.3 43 -15.6 3.8
07:55 1010 29.83 839 24.78 -4.8 23.3 44 -15.4 4.2
08:00 1010 29.83 839 24.78 -4.8 23.3 43 -15.6 3.9
08:05 1010 29.83 839 24.78 -4.8 23.3 45 -15 4.9
08:10 1010 29.83 839 24.78 -4.8 23.3 47 -14.5 6
08:15 1010 29.83 839 24.78 -4.9 23.2 45 -15.1 4.8
08:20 1010 29.83 839 24.78 -4.9 23.2 45 -15 5
08:25 1010 29.83 839 24.78 -5 23 44 -15.3 4.4
08:30 1010 29.83 839 24.78 -5 23 45 -15.3 4.5
08:35 1010 29.83 839 24.78 -5.1 22.8 46 -15 5.1
08:40 1010 29.83 839 24.78 -5 23 46 -14.9 5.2
08:45 1010 29.83 839 24.78 -4.9 23.2 45 -15 5
08:50 1010 29.83 839 24.78 -4.8 23.3 46 -14.8 5.4
08:55 1010 29.83 839 24.78 -4.9 23.2 47 -14.5 5.9
09:00 1010 29.83 839 24.78 -4.9 23.1 48 -14.4 6.1
09:05 1010 29.83 839 24.78 -5 23.1 48 -14.3 6.2
09:10 1010 29.83 839 24.78 -5 23 48 -14.3 6.3
09:15 1010 29.83 839 24.78 -5 23 49 -14.2 6.4
09:20 1010 29.83 839 24.78 -5 23 50 -13.9 6.9
09:25 1010 29.83 839 24.78 -5 22.9 50 -14 6.7
09:30 1010 29.83 840 24.81 -5 22.9 50 -13.8 7.1
09:35 1010 29.83 840 24.81 -5 22.9 49 -14.1 6.6
09:40 1011 29.85 840 24.81 -5 22.9 50 -14 6.9
09:45 1011 29.85 840 24.81 -5.1 22.9 50 -13.9 7
09:50 1011 29.85 840 24.81 -5 22.9 51 -13.8 7.2
09:55 1011 29.85 840 24.81 -5 23 50 -13.9 7
10:00 1011 29.85 840 24.81 -5 23 51 -13.7 7.4
10:05 1011 29.85 840 24.81 -5 23 50 -13.8 7.1
10:10 1011 29.85 840 24.81 -5.1 22.9 54 -13.1 8.4
10:15 1011 29.85 840 24.81 -5.1 22.8 54 -13 8.6
10:20 1011 29.85 840 24.81 -5.1 22.7 53 -13.2 8.2
10:25 1011 29.85 841 24.83 -5.1 22.9 53 -13.3 8
10:30 1011 29.85 841 24.83 -5 22.9 52 -13.4 7.9
10:35 1011 29.85 841 24.83 -5 22.9 51 -13.7 7.4
10:40 1011 29.85 841 24.83 -5 23 52 -13.5 7.7
10:45 1012 29.88 841 24.83 -5 23 51 -13.6 7.4
10:50 1012 29.88 841 24.83 -4.9 23.2 52 -13.4 7.8
10:55 1012 29.88 841 24.83 -4.8 23.3 51 -13.6 7.5
11:00 1012 29.88 841 24.83 -4.7 23.5 52 -13.1 8.4
11:05 1012 29.88 841 24.83 -4.7 23.5 52 -13.1 8.3
11:10 1012 29.88 842 24.86 -4.7 23.5 50 -13.6 7.6
11:15 1012 29.88 842 24.86 -4.8 23.4 51 -13.3 8
11:20 1013 29.91 842 24.86 -4.7 23.5 50 -13.6 7.6
11:25 1013 29.91 842 24.86 -4.7 23.5 52 -13.1 8.5
11:30 1013 29.91 842 24.86 -4.8 23.4 58 -11.8 10.8
11:35 1013 29.91 842 24.86 -5 23 67 -10.3 13.5
11:40 1013 29.91 842 24.86 -5.2 22.6 71 -9.7 14.5
11:45 1013 29.91 842 24.86 -5.3 22.4 73 -9.4 15
11:50 1013 29.91 843 24.89 -5.4 22.4 76 -9 15.8
11:55 1013 29.91 843 24.89 -5.4 22.2 78 -8.7 16.3
12:00 1013 29.91 843 24.89 -5.4 22.2 79 -8.5 16.7
12:05 1013 29.91 843 24.89 -5.4 22.3 79 -8.5 16.7
12:10 1013 29.91 843 24.89 -5.3 22.4 77 -8.7 16.4
12:15 1014 29.94 843 24.89 -5.3 22.4 79 -8.4 16.8
12:20 1014 29.94 843 24.89 -5.4 22.3 80 -8.3 17
12:25 1014 29.94 843 24.89 -5.4 22.3 78 -8.6 16.5
12:30 1014 29.94 843 24.89 -5.4 22.3 77 -8.7 16.3
12:35 1014 29.94 843 24.89 -5.4 22.2 78 -8.6 16.5
12:40 1014 29.94 843 24.89 -5.5 22.1 80 -8.5 16.7
12:45 1014 29.94 843 24.89 -5.8 21.6 83 -8.3 17.1
12:50 1014 29.94 843 24.89 -5.9 21.4 83 -8.3 17.1
12:55 1014 29.94 843 24.89 -5.7 21.7 82 -8.3 17
13:00 1014 29.94 843 24.89 -5.9 21.4 85 -8 17.6
13:05 1014 29.94 843 24.89 -6 21.3 86 -8 17.6
13:10 1014 29.94 843 24.89 -5.8 21.5 84 -8 17.5
13:15 1014 29.94 843 24.89 -5.7 21.7 83 -8.1 17.4
13:20 1014 29.94 843 24.89 -5.7 21.7 84 -8 17.6
13:25 1014 29.94 843 24.89 -5.7 21.8 84 -8 17.7
13:30 1014 29.94 843 24.89 -5.7 21.8 83 -8.1 17.4
13:35 1014 29.94 843 24.89 -5.8 21.5 83 -8.3 17.1
13:40 1014 29.94 843 24.89 -5.8 21.5 82 -8.4 16.8
13:45 1014 29.94 844 24.92 -5.8 21.6 83 -8.2 17.2
13:50 1014 29.94 844 24.92 -5.9 21.4 85 -8.1 17.5
13:55 1014 29.94 844 24.92 -5.9 21.4 86 -7.9 17.8
14:00 1014 29.94 844 24.92 -5.7 21.7 84 -8.1 17.5
14:05 1014 29.94 844 24.92 -5.8 21.6 85 -8 17.7
14:10 1014 29.94 844 24.92 -5.8 21.6 85 -7.9 17.8
14:15 1014 29.94 844 24.92 -5.6 21.9 85 -7.8 18
14:20 1015 29.97 844 24.92 -5.4 22.2 83 -7.9 17.9
14:25 1015 29.97 844 24.92 -5.5 22.1 83 -7.9 17.8
14:30 1015 29.97 844 24.92 -5.4 22.2 84 -7.8 18
14:35 1015 29.97 844 24.92 -5.4 22.3 82 -8 17.7
14:40 1015 29.97 844 24.92 -5.5 22.2 83 -7.9 17.7
14:45 1015 29.97 844 24.92 -5.4 22.2 82 -8 17.6
14:50 1015 29.97 844 24.92 -5.4 22.3 81 -8.2 17.2
14:55 1015 29.97 844 24.92 -5.5 22.1 81 -8.2 17.2
15:00 1015 29.97 844 24.92 -5.5 22.1 82 -8.2 17.3
15:05 1015 29.97 844 24.92 -5.6 22 82 -8.1 17.4
15:10 1015 29.97 844 24.92 -5.6 21.9 83 -8 17.6
15:15 1015 29.97 844 24.92 -5.7 21.7 84 -8.1 17.5
15:20 1015 29.97 844 24.92 -5.7 21.8 84 -7.9 17.7
15:25 1015 29.97 844 24.92 -5.7 21.8 83 -8 17.5
15:30 1015 29.97 844 24.92 -5.7 21.7 84 -8.1 17.5
15:35 1015 29.97 844 24.92 -5.8 21.6 85 -8 17.6
15:40 1015 29.97 844 24.92 -5.7 21.7 85 -7.8 17.9
15:45 1015 29.97 844 24.92 -5.8 21.5 85 -8 17.7
15:50 1015 29.97 845 24.95 -5.8 21.5 85 -7.9 17.7
15:55 1015 29.97 845 24.95 -5.9 21.4 85 -8.1 17.5
16:00 1015 29.97 845 24.95 -5.9 21.4 85 -8 17.7
16:05 1016 30 845 24.95 -5.8 21.5 85 -7.9 17.7
16:10 1016 30 845 24.95 -5.9 21.4 85 -8 17.6
16:15 1016 30 845 24.95 -5.9 21.4 85 -7.9 17.7
16:20 1016 30 845 24.95 -5.9 21.3 86 -8 17.6
16:25 1016 30 845 24.95 -6 21.3 86 -7.9 17.7
16:30 1016 30 845 24.95 -6 21.3 85 -8.1 17.4
16:35 1016 30 845 24.95 -6.1 21 86 -8.2 17.3
16:40 1016 30 845 24.95 -6.2 20.9 85 -8.2 17.2
16:45 1016 30 845 24.95 -6.3 20.7 85 -8.3 17
16:50 1016 30 845 24.95 -6.4 20.5 87 -8.2 17.2
16:55 1016 30 845 24.95 -6.4 20.4 87 -8.3 17
17:00 1016 30 846 24.98 -6.5 20.4 87 -8.3 17
17:05 1016 30 846 24.98 -6.5 20.4 86 -8.4 16.9
17:10 1016 30 846 24.98 -6.5 20.2 87 -8.4 16.9
17:15 1017 30.03 846 24.98 -6.5 20.2 87 -8.4 16.8
17:20 1017 30.03 846 24.98 -6.6 20.2 86 -8.5 16.6
17:25 1017 30.03 846 24.98 -6.6 20.1 86 -8.6 16.5
17:30 1017 30.03 846 24.98 -6.7 20 87 -8.5 16.7
17:35 1017 30.03 846 24.98 -6.7 19.9 88 -8.4 17
17:40 1017 30.03 846 24.98 -6.7 19.9 88 -8.4 16.9
17:45 1017 30.03 846 24.98 -6.8 19.8 88 -8.4 17
17:50 1017 30.03 846 24.98 -6.8 19.8 89 -8.3 17
17:55 1017 30.03 846 24.98 -6.8 19.7 89 -8.3 17
18:00 1017 30.03 846 24.98 -6.8 19.7 90 -8.3 17.1
18:05 1017 30.03 846 24.98 -6.9 19.6 90 -8.3 17.1
18:10 1017 30.03 846 24.98 -7 19.5 90 -8.3 17
18:15 1017 30.03 846 24.98 -7 19.5 90 -8.3 17.1
18:20 1017 30.03 846 24.98 -7 19.5 90 -8.3 17
18:25 1017 30.03 846 24.98 -7 19.5 90 -8.3 17
18:30 1017 30.03 846 24.98 -7 19.5 90 -8.4 16.9
18:35 1017 30.03 846 24.98 -7 19.4 89 -8.5 16.8
18:40 1017 30.03 846 24.98 -7.1 19.2 90 -8.5 16.7
18:45 1017 30.03 846 24.98 -7.2 19.1 90 -8.5 16.6
18:50 1017 30.03 847 25.01 -7.2 19 90 -8.6 16.4
18:55 1017 30.03 847 25.01 -7.3 18.9 90 -8.7 16.4
19:00 1018 30.06 847 25.01 -7.3 18.8 89 -8.8 16.2
19:05 1018 30.06 847 25.01 -7.4 18.7 90 -8.8 16.2
19:10 1018 30.06 847 25.01 -7.4 18.6 90 -8.8 16.2
19:15 1018 30.06 847 25.01 -7.4 18.6 90 -8.8 16.1
19:20 1018 30.06 847 25.01 -7.4 18.7 90 -8.8 16.1
19:25 1018 30.06 847 25.01 -7.4 18.7 89 -8.9 16.1
19:30 1018 30.06 847 25.01 -7.4 18.6 89 -8.9 16
19:35 1018 30.06 847 25.01 -7.5 18.5 89 -8.9 15.9
19:40 1018 30.06 847 25.01 -7.5 18.5 90 -8.9 16
19:45 1018 30.06 847 25.01 -7.5 18.6 90 -8.9 16
19:50 1018 30.06 847 25.01 -7.4 18.7 90 -8.8 16.1
19:55 1018 30.06 847 25.01 -7.4 18.7 87 -9.2 15.5
20:00 1018 30.06 847 25.01 -7.3 18.9 87 -9.1 15.7
20:05 1018 30.06 847 25.01 -7.3 18.9 86 -9.2 15.4
20:10 1018 30.06 847 25.01 -7.3 18.9 85 -9.4 15.1
20:15 1018 30.06 847 25.01 -7.4 18.7 87 -9.3 15.3
20:20 1018 30.06 847 25.01 -7.5 18.5 86 -9.4 15.1
20:25 1018 30.06 847 25.01 -7.4 18.6 85 -9.5 14.9
20:30 1018 30.06 847 25.01 -7.5 18.6 87 -9.2 15.4
20:35 1018 30.06 847 25.01 -7.5 18.5 88 -9.2 15.5
20:40 1018 30.06 847 25.01 -7.5 18.5 88 -9.1 15.6
20:45 1018 30.06 847 25.01 -7.4 18.7 88 -9 15.8
20:50 1018 30.06 848 25.04 -7.4 18.7 88 -9.1 15.7
20:55 1018 30.06 848 25.04 -7.4 18.8 88 -9.1 15.7
21:00 1018 30.06 848 25.04 -7.3 18.8 86 -9.2 15.4
21:05 1018 30.06 848 25.04 -7.4 18.8 86 -9.2 15.4
21:10 1018 30.06 848 25.04 -7.4 18.6 87 -9.3 15.3
21:15 1019 30.09 848 25.04 -7.6 18.4 86 -9.5 14.9
21:20 1019 30.09 848 25.04 -7.8 17.9 82 -10.4 13.3
21:25 1019 30.09 848 25.04 -8 17.5 82 -10.6 13
21:30 1019 30.09 848 25.04 -8.2 17.3 82 -10.7 12.8
21:35 1019 30.09 848 25.04 -8.3 17.2 83 -10.7 12.8
21:40 1019 30.09 848 25.04 -8.3 17 84 -10.5 13.1
21:45 1019 30.09 848 25.04 -8.4 16.9 85 -10.4 13.2
21:50 1019 30.09 848 25.04 -8.4 16.8 86 -10.3 13.5
21:55 1019 30.09 848 25.04 -8.5 16.7 86 -10.4 13.3
22:00 1019 30.09 848 25.04 -8.6 16.5 87 -10.3 13.4
22:05 1019 30.09 848 25.04 -8.7 16.4 88 -10.4 13.3
22:10 1019 30.09 848 25.04 -8.7 16.4 87 -10.4 13.3
22:15 1019 30.09 848 25.04 -8.7 16.4 87 -10.4 13.2
22:20 1019 30.09 848 25.04 -8.7 16.3 87 -10.5 13.1
22:25 1019 30.09 848 25.04 -8.8 16.2 88 -10.5 13.2
22:30 1019 30.09 848 25.04 -8.8 16.1 87 -10.6 13
22:35 1019 30.09 848 25.04 -8.9 16.1 88 -10.6 13
22:40 1019 30.09 848 25.04 -8.9 15.9 87 -10.7 12.8
22:45 1019 30.09 849 25.07 -9 15.8 87 -10.7 12.7
22:50 1019 30.09 849 25.07 -9.1 15.6 87 -10.9 12.5
22:55 1019 30.09 849 25.07 -9.1 15.6 88 -10.8 12.6
23:00 1019 30.09 849 25.07 -9.2 15.5 87 -11 12.2
23:05 1019 30.09 849 25.07 -9.3 15.3 87 -11 12.1
23:10 1020 30.12 849 25.07 -9.4 15.1 87 -11.1 12
23:15 1020 30.12 849 25.07 -9.4 15 88 -11.1 12.1
23:20 1020 30.12 849 25.07 -9.4 15 88 -11.1 12.1
23:25 1020 30.12 849 25.07 -9.4 15 88 -11.1 12
23:30 1020 30.12 849 25.07 -9.4 15 88 -11.1 12.1
23:35 1020 30.12 849 25.07 -9.4 15.1 87 -11.1 12
23:40 1020 30.12 849 25.07 -9.4 15.1 87 -11.2 11.9
23:45 1020 30.12 849 25.07 -9.4 15.1 86 -11.3 11.6
23:50 1020 30.12 849 25.07 -9.5 14.9 87 -11.3 11.7
23:55 1020 30.12 849 25.07 -9.5 14.9 88 -11.2 11.8
24:00 1020 30.12 849 25.07 -9.5 14.9 87 -11.2 11.8